sensor_id;sensor_type;location;lat;lon;timestamp;P1;durP1;ratioP1;P2;durP2;ratioP2
9888;SDS011;4983;42.112;24.738;2023-08-12T00:01:10;1.50;;;1.40;;
9888;SDS011;4983;42.112;24.738;2023-08-12T00:03:37;2.03;;;1.70;;
9888;SDS011;4983;42.112;24.738;2023-08-12T00:06:04;1.80;;;1.70;;
9888;SDS011;4983;42.112;24.738;2023-08-12T00:08:32;1.70;;;1.60;;
9888;SDS011;4983;42.112;24.738;2023-08-12T00:10:59;1.57;;;1.47;;
9888;SDS011;4983;42.112;24.738;2023-08-12T00:13:27;1.67;;;1.57;;
9888;SDS011;4983;42.112;24.738;2023-08-12T00:15:55;1.70;;;1.60;;
9888;SDS011;4983;42.112;24.738;2023-08-12T00:18:23;1.33;;;1.23;;
9888;SDS011;4983;42.112;24.738;2023-08-12T00:20:50;1.40;;;1.30;;
9888;SDS011;4983;42.112;24.738;2023-08-12T00:23:18;2.33;;;1.80;;
9888;SDS011;4983;42.112;24.738;2023-08-12T00:25:45;2.57;;;1.60;;
9888;SDS011;4983;42.112;24.738;2023-08-12T00:28:12;1.63;;;1.50;;
9888;SDS011;4983;42.112;24.738;2023-08-12T00:30:41;1.50;;;1.40;;
9888;SDS011;4983;42.112;24.738;2023-08-12T00:33:08;1.83;;;1.63;;
9888;SDS011;4983;42.112;24.738;2023-08-12T00:35:35;2.10;;;1.90;;
9888;SDS011;4983;42.112;24.738;2023-08-12T00:38:03;1.50;;;1.30;;
9888;SDS011;4983;42.112;24.738;2023-08-12T00:40:30;1.60;;;1.50;;
9888;SDS011;4983;42.112;24.738;2023-08-12T00:42:57;1.70;;;1.57;;
9888;SDS011;4983;42.112;24.738;2023-08-12T00:45:24;1.50;;;1.40;;
9888;SDS011;4983;42.112;24.738;2023-08-12T00:47:53;1.87;;;1.63;;
9888;SDS011;4983;42.112;24.738;2023-08-12T00:50:20;1.60;;;1.47;;
9888;SDS011;4983;42.112;24.738;2023-08-12T00:52:48;1.57;;;1.47;;
9888;SDS011;4983;42.112;24.738;2023-08-12T00:55:16;1.50;;;1.40;;
9888;SDS011;4983;42.112;24.738;2023-08-12T00:57:43;1.80;;;1.50;;
9888;SDS011;4983;42.112;24.738;2023-08-12T01:00:11;1.40;;;1.30;;
9888;SDS011;4983;42.112;24.738;2023-08-12T01:02:39;3.20;;;1.70;;
9888;SDS011;4983;42.112;24.738;2023-08-12T01:05:12;3.03;;;1.60;;
9888;SDS011;4983;42.112;24.738;2023-08-12T01:07:39;1.40;;;1.30;;
9888;SDS011;4983;42.112;24.738;2023-08-12T01:10:06;2.20;;;1.73;;
9888;SDS011;4983;42.112;24.738;2023-08-12T01:12:36;1.83;;;1.60;;
9888;SDS011;4983;42.112;24.738;2023-08-12T01:15:13;1.70;;;1.60;;
9888;SDS011;4983;42.112;24.738;2023-08-12T01:17:43;1.67;;;1.57;;
9888;SDS011;4983;42.112;24.738;2023-08-12T01:20:12;2.27;;;1.60;;
9888;SDS011;4983;42.112;24.738;2023-08-12T01:22:40;1.63;;;1.53;;
9888;SDS011;4983;42.112;24.738;2023-08-12T01:25:11;1.80;;;1.53;;
9888;SDS011;4983;42.112;24.738;2023-08-12T01:27:39;1.50;;;1.40;;
9888;SDS011;4983;42.112;24.738;2023-08-12T01:30:06;1.73;;;1.50;;
9888;SDS011;4983;42.112;24.738;2023-08-12T01:32:38;1.90;;;1.70;;
9888;SDS011;4983;42.112;24.738;2023-08-12T01:35:11;2.37;;;1.80;;
9888;SDS011;4983;42.112;24.738;2023-08-12T01:37:44;1.60;;;1.50;;
9888;SDS011;4983;42.112;24.738;2023-08-12T01:40:14;1.63;;;1.53;;
9888;SDS011;4983;42.112;24.738;2023-08-12T01:42:43;1.60;;;1.50;;
9888;SDS011;4983;42.112;24.738;2023-08-12T01:45:11;1.60;;;1.50;;
9888;SDS011;4983;42.112;24.738;2023-08-12T01:47:39;1.70;;;1.60;;
9888;SDS011;4983;42.112;24.738;2023-08-12T01:50:11;1.47;;;1.37;;
9888;SDS011;4983;42.112;24.738;2023-08-12T01:52:38;1.77;;;1.53;;
9888;SDS011;4983;42.112;24.738;2023-08-12T01:55:05;2.30;;;1.50;;
9888;SDS011;4983;42.112;24.738;2023-08-12T01:57:35;1.73;;;1.57;;
9888;SDS011;4983;42.112;24.738;2023-08-12T02:00:02;1.70;;;1.50;;
9888;SDS011;4983;42.112;24.738;2023-08-12T02:02:29;1.70;;;1.60;;
9888;SDS011;4983;42.112;24.738;2023-08-12T02:04:56;1.73;;;1.63;;
9888;SDS011;4983;42.112;24.738;2023-08-12T02:07:24;2.73;;;1.80;;
9888;SDS011;4983;42.112;24.738;2023-08-12T02:09:51;1.83;;;1.43;;
9888;SDS011;4983;42.112;24.738;2023-08-12T02:12:18;1.60;;;1.50;;
9888;SDS011;4983;42.112;24.738;2023-08-12T02:14:46;1.90;;;1.73;;
9888;SDS011;4983;42.112;24.738;2023-08-12T02:17:14;2.40;;;1.77;;
9888;SDS011;4983;42.112;24.738;2023-08-12T02:19:42;1.77;;;1.67;;
9888;SDS011;4983;42.112;24.738;2023-08-12T02:22:10;1.80;;;1.70;;
9888;SDS011;4983;42.112;24.738;2023-08-12T02:24:37;1.57;;;1.47;;
9888;SDS011;4983;42.112;24.738;2023-08-12T02:27:04;1.60;;;1.50;;
9888;SDS011;4983;42.112;24.738;2023-08-12T02:29:31;1.67;;;1.57;;
9888;SDS011;4983;42.112;24.738;2023-08-12T02:32:00;2.10;;;1.77;;
9888;SDS011;4983;42.112;24.738;2023-08-12T02:34:28;1.50;;;1.40;;
9888;SDS011;4983;42.112;24.738;2023-08-12T02:36:55;1.60;;;1.50;;
9888;SDS011;4983;42.112;24.738;2023-08-12T02:39:22;1.50;;;1.40;;
9888;SDS011;4983;42.112;24.738;2023-08-12T02:41:49;1.50;;;1.40;;
9888;SDS011;4983;42.112;24.738;2023-08-12T02:44:17;5.37;;;1.83;;
9888;SDS011;4983;42.112;24.738;2023-08-12T02:46:44;1.70;;;1.60;;
9888;SDS011;4983;42.112;24.738;2023-08-12T02:49:13;1.67;;;1.57;;
9888;SDS011;4983;42.112;24.738;2023-08-12T02:51:40;1.60;;;1.50;;
9888;SDS011;4983;42.112;24.738;2023-08-12T02:54:07;1.60;;;1.50;;
9888;SDS011;4983;42.112;24.738;2023-08-12T02:56:34;1.83;;;1.63;;
9888;SDS011;4983;42.112;24.738;2023-08-12T02:59:02;1.80;;;1.70;;
9888;SDS011;4983;42.112;24.738;2023-08-12T03:01:29;2.43;;;2.00;;
9888;SDS011;4983;42.112;24.738;2023-08-12T03:03:57;2.93;;;2.10;;
9888;SDS011;4983;42.112;24.738;2023-08-12T03:06:25;2.83;;;1.60;;
9888;SDS011;4983;42.112;24.738;2023-08-12T03:08:52;2.20;;;1.43;;
9888;SDS011;4983;42.112;24.738;2023-08-12T03:11:19;1.97;;;1.60;;
9888;SDS011;4983;42.112;24.738;2023-08-12T03:13:46;1.83;;;1.60;;
9888;SDS011;4983;42.112;24.738;2023-08-12T03:16:14;1.90;;;1.47;;
9888;SDS011;4983;42.112;24.738;2023-08-12T03:18:41;2.33;;;1.73;;
9888;SDS011;4983;42.112;24.738;2023-08-12T03:21:08;1.73;;;1.63;;
9888;SDS011;4983;42.112;24.738;2023-08-12T03:23:37;3.70;;;1.60;;
9888;SDS011;4983;42.112;24.738;2023-08-12T03:26:05;1.70;;;1.60;;
9888;SDS011;4983;42.112;24.738;2023-08-12T03:28:32;1.87;;;1.67;;
9888;SDS011;4983;42.112;24.738;2023-08-12T03:30:59;2.00;;;1.80;;
9888;SDS011;4983;42.112;24.738;2023-08-12T03:33:26;1.77;;;1.57;;
9888;SDS011;4983;42.112;24.738;2023-08-12T03:35:53;1.60;;;1.50;;
9888;SDS011;4983;42.112;24.738;2023-08-12T03:38:20;1.97;;;1.67;;
9888;SDS011;4983;42.112;24.738;2023-08-12T03:40:49;5.47;;;1.80;;
9888;SDS011;4983;42.112;24.738;2023-08-12T03:43:16;2.10;;;1.43;;
9888;SDS011;4983;42.112;24.738;2023-08-12T03:45:44;1.83;;;1.60;;
9888;SDS011;4983;42.112;24.738;2023-08-12T03:48:11;2.80;;;1.60;;
9888;SDS011;4983;42.112;24.738;2023-08-12T03:50:39;5.20;;;3.67;;
9888;SDS011;4983;42.112;24.738;2023-08-12T03:53:06;20.47;;;12.50;;
9888;SDS011;4983;42.112;24.738;2023-08-12T03:55:34;27.27;;;17.50;;
9888;SDS011;4983;42.112;24.738;2023-08-12T03:58:03;16.70;;;10.87;;
9888;SDS011;4983;42.112;24.738;2023-08-12T04:00:30;6.87;;;4.50;;
9888;SDS011;4983;42.112;24.738;2023-08-12T04:02:57;4.53;;;2.60;;
9888;SDS011;4983;42.112;24.738;2023-08-12T04:05:24;2.73;;;2.37;;
9888;SDS011;4983;42.112;24.738;2023-08-12T04:07:51;2.03;;;1.67;;
9888;SDS011;4983;42.112;24.738;2023-08-12T04:10:18;2.03;;;1.60;;
9888;SDS011;4983;42.112;24.738;2023-08-12T04:12:46;2.17;;;1.90;;
9888;SDS011;4983;42.112;24.738;2023-08-12T04:15:14;2.60;;;1.77;;
9888;SDS011;4983;42.112;24.738;2023-08-12T04:17:41;2.00;;;1.80;;
9888;SDS011;4983;42.112;24.738;2023-08-12T04:20:09;2.30;;;1.97;;
9888;SDS011;4983;42.112;24.738;2023-08-12T04:22:36;6.70;;;2.23;;
9888;SDS011;4983;42.112;24.738;2023-08-12T04:25:04;3.53;;;1.77;;
9888;SDS011;4983;42.112;24.738;2023-08-12T04:27:33;3.67;;;2.00;;
9888;SDS011;4983;42.112;24.738;2023-08-12T04:30:00;2.03;;;1.70;;
9888;SDS011;4983;42.112;24.738;2023-08-12T04:32:28;3.00;;;1.50;;
9888;SDS011;4983;42.112;24.738;2023-08-12T04:34:55;3.00;;;1.80;;
9888;SDS011;4983;42.112;24.738;2023-08-12T04:37:23;4.77;;;1.97;;
9888;SDS011;4983;42.112;24.738;2023-08-12T04:39:51;3.03;;;2.10;;
9888;SDS011;4983;42.112;24.738;2023-08-12T04:42:18;1.77;;;1.67;;
9888;SDS011;4983;42.112;24.738;2023-08-12T04:44:45;2.20;;;1.70;;
9888;SDS011;4983;42.112;24.738;2023-08-12T04:47:12;1.87;;;1.60;;
9888;SDS011;4983;42.112;24.738;2023-08-12T04:49:41;2.60;;;1.77;;
9888;SDS011;4983;42.112;24.738;2023-08-12T04:52:08;2.63;;;1.70;;
9888;SDS011;4983;42.112;24.738;2023-08-12T04:54:35;3.57;;;1.80;;
9888;SDS011;4983;42.112;24.738;2023-08-12T04:57:02;1.60;;;1.50;;
9888;SDS011;4983;42.112;24.738;2023-08-12T04:59:31;3.53;;;2.03;;
9888;SDS011;4983;42.112;24.738;2023-08-12T05:01:58;2.17;;;1.97;;
9888;SDS011;4983;42.112;24.738;2023-08-12T05:04:25;3.13;;;1.90;;
9888;SDS011;4983;42.112;24.738;2023-08-12T05:06:53;2.83;;;1.97;;
9888;SDS011;4983;42.112;24.738;2023-08-12T05:09:21;1.90;;;1.70;;
9888;SDS011;4983;42.112;24.738;2023-08-12T05:11:48;2.77;;;2.20;;
9888;SDS011;4983;42.112;24.738;2023-08-12T05:14:15;2.67;;;2.03;;
9888;SDS011;4983;42.112;24.738;2023-08-12T05:16:42;3.17;;;2.33;;
9888;SDS011;4983;42.112;24.738;2023-08-12T05:19:09;2.77;;;1.73;;
9888;SDS011;4983;42.112;24.738;2023-08-12T05:21:36;2.27;;;1.90;;
9888;SDS011;4983;42.112;24.738;2023-08-12T05:24:05;2.20;;;1.97;;
9888;SDS011;4983;42.112;24.738;2023-08-12T05:26:33;2.67;;;1.90;;
9888;SDS011;4983;42.112;24.738;2023-08-12T05:29:01;2.00;;;1.83;;
9888;SDS011;4983;42.112;24.738;2023-08-12T05:31:28;2.23;;;1.97;;
9888;SDS011;4983;42.112;24.738;2023-08-12T05:33:56;3.03;;;2.10;;
9888;SDS011;4983;42.112;24.738;2023-08-12T05:36:23;4.60;;;1.97;;
9888;SDS011;4983;42.112;24.738;2023-08-12T05:38:51;2.10;;;1.90;;
9888;SDS011;4983;42.112;24.738;2023-08-12T05:41:19;3.27;;;2.13;;
9888;SDS011;4983;42.112;24.738;2023-08-12T05:43:47;2.43;;;2.23;;
9888;SDS011;4983;42.112;24.738;2023-08-12T05:46:15;5.03;;;2.30;;
9888;SDS011;4983;42.112;24.738;2023-08-12T05:48:42;3.37;;;2.10;;
9888;SDS011;4983;42.112;24.738;2023-08-12T05:51:10;5.57;;;2.13;;
9888;SDS011;4983;42.112;24.738;2023-08-12T05:53:37;7.03;;;2.70;;
9888;SDS011;4983;42.112;24.738;2023-08-12T05:56:06;2.30;;;2.10;;
9888;SDS011;4983;42.112;24.738;2023-08-12T05:58:34;2.97;;;2.50;;
9888;SDS011;4983;42.112;24.738;2023-08-12T06:01:03;3.10;;;1.87;;
9888;SDS011;4983;42.112;24.738;2023-08-12T06:03:30;2.03;;;1.83;;
9888;SDS011;4983;42.112;24.738;2023-08-12T06:05:57;3.77;;;2.20;;
9888;SDS011;4983;42.112;24.738;2023-08-12T06:08:24;3.30;;;2.03;;
9888;SDS011;4983;42.112;24.738;2023-08-12T06:10:51;3.27;;;2.20;;
9888;SDS011;4983;42.112;24.738;2023-08-12T06:13:18;5.43;;;2.87;;
9888;SDS011;4983;42.112;24.738;2023-08-12T06:15:47;2.43;;;1.90;;
9888;SDS011;4983;42.112;24.738;2023-08-12T06:18:14;3.37;;;2.17;;
9888;SDS011;4983;42.112;24.738;2023-08-12T06:20:42;5.40;;;2.47;;
9888;SDS011;4983;42.112;24.738;2023-08-12T06:23:09;2.53;;;2.03;;
9888;SDS011;4983;42.112;24.738;2023-08-12T06:25:36;2.13;;;1.90;;
9888;SDS011;4983;42.112;24.738;2023-08-12T06:28:03;2.73;;;1.80;;
9888;SDS011;4983;42.112;24.738;2023-08-12T06:30:30;2.43;;;2.00;;
9888;SDS011;4983;42.112;24.738;2023-08-12T06:32:59;3.67;;;2.07;;
9888;SDS011;4983;42.112;24.738;2023-08-12T06:35:26;2.73;;;2.13;;
9888;SDS011;4983;42.112;24.738;2023-08-12T06:37:53;2.03;;;1.83;;
9888;SDS011;4983;42.112;24.738;2023-08-12T06:40:21;4.10;;;2.10;;
9888;SDS011;4983;42.112;24.738;2023-08-12T06:42:48;2.43;;;2.23;;
9888;SDS011;4983;42.112;24.738;2023-08-12T06:45:15;2.43;;;1.93;;
9888;SDS011;4983;42.112;24.738;2023-08-12T06:47:42;3.00;;;2.00;;
9888;SDS011;4983;42.112;24.738;2023-08-12T06:50:12;4.20;;;2.20;;
9888;SDS011;4983;42.112;24.738;2023-08-12T06:52:39;28.23;;;10.60;;
9888;SDS011;4983;42.112;24.738;2023-08-12T06:55:08;2.47;;;1.70;;
9888;SDS011;4983;42.112;24.738;2023-08-12T06:57:36;2.67;;;1.80;;
9888;SDS011;4983;42.112;24.738;2023-08-12T07:00:04;2.10;;;1.90;;
9888;SDS011;4983;42.112;24.738;2023-08-12T07:02:33;4.90;;;2.47;;
9888;SDS011;4983;42.112;24.738;2023-08-12T07:05:00;25.97;;;9.17;;
9888;SDS011;4983;42.112;24.738;2023-08-12T07:07:29;3.23;;;2.20;;
9888;SDS011;4983;42.112;24.738;2023-08-12T07:09:57;2.10;;;1.80;;
9888;SDS011;4983;42.112;24.738;2023-08-12T07:12:24;1.80;;;1.70;;
9888;SDS011;4983;42.112;24.738;2023-08-12T07:14:51;3.33;;;2.23;;
9888;SDS011;4983;42.112;24.738;2023-08-12T07:17:18;3.37;;;2.00;;
9888;SDS011;4983;42.112;24.738;2023-08-12T07:19:47;2.43;;;2.23;;
9888;SDS011;4983;42.112;24.738;2023-08-12T07:22:14;2.93;;;1.90;;
9888;SDS011;4983;42.112;24.738;2023-08-12T07:24:46;3.37;;;2.00;;
9888;SDS011;4983;42.112;24.738;2023-08-12T07:27:13;4.67;;;1.90;;
9888;SDS011;4983;42.112;24.738;2023-08-12T07:29:41;1.87;;;1.50;;
9888;SDS011;4983;42.112;24.738;2023-08-12T07:32:08;1.57;;;1.47;;
9888;SDS011;4983;42.112;24.738;2023-08-12T07:34:37;1.77;;;1.63;;
9888;SDS011;4983;42.112;24.738;2023-08-12T07:37:04;2.00;;;1.60;;
9888;SDS011;4983;42.112;24.738;2023-08-12T07:39:32;2.37;;;1.73;;
9888;SDS011;4983;42.112;24.738;2023-08-12T07:42:00;2.00;;;1.80;;
9888;SDS011;4983;42.112;24.738;2023-08-12T07:44:28;2.20;;;1.50;;
9888;SDS011;4983;42.112;24.738;2023-08-12T07:46:55;1.83;;;1.70;;
9888;SDS011;4983;42.112;24.738;2023-08-12T07:49:22;3.07;;;1.70;;
9888;SDS011;4983;42.112;24.738;2023-08-12T07:51:50;2.03;;;1.73;;
9888;SDS011;4983;42.112;24.738;2023-08-12T07:54:18;1.73;;;1.50;;
9888;SDS011;4983;42.112;24.738;2023-08-12T07:56:46;1.70;;;1.60;;
9888;SDS011;4983;42.112;24.738;2023-08-12T07:59:15;2.30;;;1.90;;
9888;SDS011;4983;42.112;24.738;2023-08-12T08:01:42;1.90;;;1.67;;
9888;SDS011;4983;42.112;24.738;2023-08-12T08:04:09;2.23;;;1.80;;
9888;SDS011;4983;42.112;24.738;2023-08-12T08:06:36;5.67;;;1.60;;
9888;SDS011;4983;42.112;24.738;2023-08-12T08:09:04;1.60;;;1.50;;
9888;SDS011;4983;42.112;24.738;2023-08-12T08:11:32;3.40;;;1.87;;
9888;SDS011;4983;42.112;24.738;2023-08-12T08:13:59;1.47;;;1.37;;
9888;SDS011;4983;42.112;24.738;2023-08-12T08:16:29;2.17;;;1.87;;
9888;SDS011;4983;42.112;24.738;2023-08-12T08:18:56;2.10;;;1.90;;
9888;SDS011;4983;42.112;24.738;2023-08-12T08:21:25;2.60;;;1.53;;
9888;SDS011;4983;42.112;24.738;2023-08-12T08:23:53;2.40;;;1.70;;
9888;SDS011;4983;42.112;24.738;2023-08-12T08:26:22;2.97;;;1.50;;
9888;SDS011;4983;42.112;24.738;2023-08-12T08:28:50;1.60;;;1.50;;
9888;SDS011;4983;42.112;24.738;2023-08-12T08:31:19;1.60;;;1.50;;
9888;SDS011;4983;42.112;24.738;2023-08-12T08:33:47;1.93;;;1.50;;
9888;SDS011;4983;42.112;24.738;2023-08-12T08:36:14;3.87;;;1.70;;
9888;SDS011;4983;42.112;24.738;2023-08-12T08:38:42;4.00;;;1.90;;
9888;SDS011;4983;42.112;24.738;2023-08-12T08:41:09;1.60;;;1.50;;
9888;SDS011;4983;42.112;24.738;2023-08-12T08:43:36;1.67;;;1.57;;
9888;SDS011;4983;42.112;24.738;2023-08-12T08:46:09;2.87;;;1.70;;
9888;SDS011;4983;42.112;24.738;2023-08-12T08:48:40;1.60;;;1.50;;
9888;SDS011;4983;42.112;24.738;2023-08-12T08:51:09;3.40;;;1.60;;
9888;SDS011;4983;42.112;24.738;2023-08-12T08:53:37;2.60;;;1.40;;
9888;SDS011;4983;42.112;24.738;2023-08-12T08:56:05;1.77;;;1.53;;
9888;SDS011;4983;42.112;24.738;2023-08-12T08:58:33;3.33;;;2.00;;
9888;SDS011;4983;42.112;24.738;2023-08-12T09:01:00;2.73;;;1.90;;
9888;SDS011;4983;42.112;24.738;2023-08-12T09:03:29;2.47;;;1.70;;
9888;SDS011;4983;42.112;24.738;2023-08-12T09:05:57;2.20;;;1.67;;
9888;SDS011;4983;42.112;24.738;2023-08-12T09:08:26;1.60;;;1.50;;
9888;SDS011;4983;42.112;24.738;2023-08-12T09:10:55;4.47;;;1.63;;
9888;SDS011;4983;42.112;24.738;2023-08-12T09:13:23;2.07;;;1.80;;
9888;SDS011;4983;42.112;24.738;2023-08-12T09:15:51;3.73;;;1.50;;
9888;SDS011;4983;42.112;24.738;2023-08-12T09:18:20;2.63;;;1.33;;
9888;SDS011;4983;42.112;24.738;2023-08-12T09:20:49;1.67;;;1.40;;
9888;SDS011;4983;42.112;24.738;2023-08-12T09:23:17;3.07;;;1.67;;
9888;SDS011;4983;42.112;24.738;2023-08-12T09:25:46;2.07;;;1.40;;
9888;SDS011;4983;42.112;24.738;2023-08-12T09:28:14;20.30;;;3.33;;
9888;SDS011;4983;42.112;24.738;2023-08-12T09:30:41;1.93;;;1.70;;
9888;SDS011;4983;42.112;24.738;2023-08-12T09:33:09;3.73;;;1.77;;
9888;SDS011;4983;42.112;24.738;2023-08-12T09:35:36;2.03;;;1.57;;
9888;SDS011;4983;42.112;24.738;2023-08-12T09:38:06;1.73;;;1.60;;
9888;SDS011;4983;42.112;24.738;2023-08-12T09:40:34;1.50;;;1.40;;
9888;SDS011;4983;42.112;24.738;2023-08-12T09:43:04;2.90;;;1.40;;
9888;SDS011;4983;42.112;24.738;2023-08-12T09:45:32;1.63;;;1.30;;
9888;SDS011;4983;42.112;24.738;2023-08-12T09:48:00;1.40;;;1.30;;
9888;SDS011;4983;42.112;24.738;2023-08-12T09:50:28;1.90;;;1.67;;
9888;SDS011;4983;42.112;24.738;2023-08-12T09:52:56;1.50;;;1.40;;
9888;SDS011;4983;42.112;24.738;2023-08-12T09:55:24;8.40;;;2.30;;
9888;SDS011;4983;42.112;24.738;2023-08-12T09:57:52;1.63;;;1.37;;
9888;SDS011;4983;42.112;24.738;2023-08-12T10:00:23;3.73;;;1.60;;
9888;SDS011;4983;42.112;24.738;2023-08-12T10:02:51;2.00;;;1.80;;
9888;SDS011;4983;42.112;24.738;2023-08-12T10:05:21;1.77;;;1.40;;
9888;SDS011;4983;42.112;24.738;2023-08-12T10:07:51;3.47;;;1.80;;
9888;SDS011;4983;42.112;24.738;2023-08-12T10:10:19;1.50;;;1.40;;
9888;SDS011;4983;42.112;24.738;2023-08-12T10:12:47;3.73;;;1.80;;
9888;SDS011;4983;42.112;24.738;2023-08-12T10:15:15;3.33;;;2.10;;
9888;SDS011;4983;42.112;24.738;2023-08-12T10:17:43;4.23;;;1.70;;
9888;SDS011;4983;42.112;24.738;2023-08-12T10:20:12;1.50;;;1.40;;
9888;SDS011;4983;42.112;24.738;2023-08-12T10:22:40;2.20;;;1.67;;
9888;SDS011;4983;42.112;24.738;2023-08-12T10:25:12;3.70;;;1.70;;
9888;SDS011;4983;42.112;24.738;2023-08-12T10:27:41;1.67;;;1.50;;
9888;SDS011;4983;42.112;24.738;2023-08-12T10:30:08;2.80;;;1.63;;
9888;SDS011;4983;42.112;24.738;2023-08-12T10:32:36;2.40;;;1.90;;
9888;SDS011;4983;42.112;24.738;2023-08-12T10:35:06;1.80;;;1.50;;
9888;SDS011;4983;42.112;24.738;2023-08-12T10:37:34;3.80;;;2.03;;
9888;SDS011;4983;42.112;24.738;2023-08-12T10:40:02;3.27;;;1.50;;
9888;SDS011;4983;42.112;24.738;2023-08-12T10:42:41;3.00;;;1.63;;
9888;SDS011;4983;42.112;24.738;2023-08-12T10:45:09;2.20;;;1.80;;
9888;SDS011;4983;42.112;24.738;2023-08-12T10:47:38;1.40;;;1.30;;
9888;SDS011;4983;42.112;24.738;2023-08-12T10:50:10;2.80;;;1.70;;
9888;SDS011;4983;42.112;24.738;2023-08-12T10:52:44;2.17;;;1.73;;
9888;SDS011;4983;42.112;24.738;2023-08-12T10:55:17;2.33;;;1.60;;
9888;SDS011;4983;42.112;24.738;2023-08-12T10:57:46;3.80;;;1.67;;
9888;SDS011;4983;42.112;24.738;2023-08-12T11:00:14;2.17;;;1.60;;
9888;SDS011;4983;42.112;24.738;2023-08-12T11:02:44;4.30;;;1.47;;
9888;SDS011;4983;42.112;24.738;2023-08-12T11:05:13;1.87;;;1.70;;
9888;SDS011;4983;42.112;24.738;2023-08-12T11:07:41;1.60;;;1.50;;
9888;SDS011;4983;42.112;24.738;2023-08-12T11:10:10;1.53;;;1.30;;
9888;SDS011;4983;42.112;24.738;2023-08-12T11:12:38;2.20;;;1.93;;
9888;SDS011;4983;42.112;24.738;2023-08-12T11:15:07;6.13;;;2.07;;
9888;SDS011;4983;42.112;24.738;2023-08-12T11:17:35;1.97;;;1.40;;
9888;SDS011;4983;42.112;24.738;2023-08-12T11:20:04;1.60;;;1.33;;
9888;SDS011;4983;42.112;24.738;2023-08-12T11:22:36;1.80;;;1.53;;
9888;SDS011;4983;42.112;24.738;2023-08-12T11:25:04;1.97;;;1.30;;
9888;SDS011;4983;42.112;24.738;2023-08-12T11:27:37;1.33;;;1.23;;
9888;SDS011;4983;42.112;24.738;2023-08-12T11:30:06;2.23;;;1.50;;
9888;SDS011;4983;42.112;24.738;2023-08-12T11:32:36;2.03;;;1.63;;
9888;SDS011;4983;42.112;24.738;2023-08-12T11:35:04;1.57;;;1.20;;
9888;SDS011;4983;42.112;24.738;2023-08-12T11:37:32;2.30;;;1.43;;
9888;SDS011;4983;42.112;24.738;2023-08-12T11:40:02;1.90;;;1.47;;
9888;SDS011;4983;42.112;24.738;2023-08-12T11:42:30;4.13;;;1.50;;
9888;SDS011;4983;42.112;24.738;2023-08-12T11:44:57;1.60;;;1.43;;
9888;SDS011;4983;42.112;24.738;2023-08-12T11:47:24;1.43;;;1.30;;
9888;SDS011;4983;42.112;24.738;2023-08-12T11:49:52;2.00;;;1.53;;
9888;SDS011;4983;42.112;24.738;2023-08-12T11:52:20;1.70;;;1.60;;
9888;SDS011;4983;42.112;24.738;2023-08-12T11:54:48;1.63;;;1.50;;
9888;SDS011;4983;42.112;24.738;2023-08-12T11:57:18;1.73;;;1.60;;
9888;SDS011;4983;42.112;24.738;2023-08-12T11:59:45;1.60;;;1.50;;
9888;SDS011;4983;42.112;24.738;2023-08-12T12:02:12;2.70;;;1.40;;
9888;SDS011;4983;42.112;24.738;2023-08-12T12:04:41;2.20;;;1.57;;
9888;SDS011;4983;42.112;24.738;2023-08-12T12:07:19;4.97;;;1.87;;
9888;SDS011;4983;42.112;24.738;2023-08-12T12:09:46;1.60;;;1.50;;
9888;SDS011;4983;42.112;24.738;2023-08-12T12:12:21;1.60;;;1.50;;
9888;SDS011;4983;42.112;24.738;2023-08-12T12:14:50;1.70;;;1.37;;
9888;SDS011;4983;42.112;24.738;2023-08-12T12:17:20;2.37;;;1.77;;
9888;SDS011;4983;42.112;24.738;2023-08-12T12:19:51;2.93;;;1.50;;
9888;SDS011;4983;42.112;24.738;2023-08-12T12:22:19;2.70;;;1.53;;
9888;SDS011;4983;42.112;24.738;2023-08-12T12:24:47;1.87;;;1.60;;
9888;SDS011;4983;42.112;24.738;2023-08-12T12:27:15;4.23;;;1.80;;
9888;SDS011;4983;42.112;24.738;2023-08-12T12:29:43;3.63;;;1.70;;
9888;SDS011;4983;42.112;24.738;2023-08-12T12:32:11;2.57;;;1.50;;
9888;SDS011;4983;42.112;24.738;2023-08-12T12:34:39;2.30;;;1.50;;
9888;SDS011;4983;42.112;24.738;2023-08-12T12:37:06;5.60;;;1.63;;
9888;SDS011;4983;42.112;24.738;2023-08-12T12:39:33;4.37;;;1.77;;
9888;SDS011;4983;42.112;24.738;2023-08-12T12:42:00;2.00;;;1.43;;
9888;SDS011;4983;42.112;24.738;2023-08-12T12:44:28;1.93;;;1.53;;
9888;SDS011;4983;42.112;24.738;2023-08-12T12:46:57;1.83;;;1.60;;
9888;SDS011;4983;42.112;24.738;2023-08-12T12:49:24;2.57;;;1.50;;
9888;SDS011;4983;42.112;24.738;2023-08-12T12:51:54;3.60;;;1.57;;
9888;SDS011;4983;42.112;24.738;2023-08-12T12:54:21;1.60;;;1.50;;
9888;SDS011;4983;42.112;24.738;2023-08-12T12:56:48;4.67;;;1.90;;
9888;SDS011;4983;42.112;24.738;2023-08-12T12:59:15;2.93;;;1.87;;
9888;SDS011;4983;42.112;24.738;2023-08-12T13:01:43;1.87;;;1.50;;
9888;SDS011;4983;42.112;24.738;2023-08-12T13:04:11;2.33;;;1.70;;
9888;SDS011;4983;42.112;24.738;2023-08-12T13:06:38;1.93;;;1.40;;
9888;SDS011;4983;42.112;24.738;2023-08-12T13:09:06;1.90;;;1.70;;
9888;SDS011;4983;42.112;24.738;2023-08-12T13:11:34;1.93;;;1.33;;
9888;SDS011;4983;42.112;24.738;2023-08-12T13:14:01;1.70;;;1.30;;
9888;SDS011;4983;42.112;24.738;2023-08-12T13:16:29;1.60;;;1.37;;
9888;SDS011;4983;42.112;24.738;2023-08-12T13:18:56;2.57;;;1.60;;
9888;SDS011;4983;42.112;24.738;2023-08-12T13:21:27;3.50;;;1.70;;
9888;SDS011;4983;42.112;24.738;2023-08-12T13:23:54;1.70;;;1.60;;
9888;SDS011;4983;42.112;24.738;2023-08-12T13:26:22;2.10;;;1.70;;
9888;SDS011;4983;42.112;24.738;2023-08-12T13:28:49;2.20;;;1.60;;
9888;SDS011;4983;42.112;24.738;2023-08-12T13:31:16;1.50;;;1.30;;
9888;SDS011;4983;42.112;24.738;2023-08-12T13:33:43;1.60;;;1.50;;
9888;SDS011;4983;42.112;24.738;2023-08-12T13:36:11;2.20;;;1.77;;
9888;SDS011;4983;42.112;24.738;2023-08-12T13:38:40;1.40;;;1.30;;
9888;SDS011;4983;42.112;24.738;2023-08-12T13:41:07;2.27;;;1.43;;
9888;SDS011;4983;42.112;24.738;2023-08-12T13:43:36;1.60;;;1.40;;
9888;SDS011;4983;42.112;24.738;2023-08-12T13:46:04;1.60;;;1.50;;
9888;SDS011;4983;42.112;24.738;2023-08-12T13:48:32;1.57;;;1.20;;
9888;SDS011;4983;42.112;24.738;2023-08-12T13:51:00;1.90;;;1.30;;
9888;SDS011;4983;42.112;24.738;2023-08-12T13:53:27;3.30;;;1.43;;
9888;SDS011;4983;42.112;24.738;2023-08-12T13:55:56;1.63;;;1.50;;
9888;SDS011;4983;42.112;24.738;2023-08-12T13:58:23;2.43;;;1.87;;
9888;SDS011;4983;42.112;24.738;2023-08-12T14:00:50;1.73;;;1.30;;
9888;SDS011;4983;42.112;24.738;2023-08-12T14:03:18;1.60;;;1.30;;
9888;SDS011;4983;42.112;24.738;2023-08-12T14:05:46;5.90;;;1.50;;
9888;SDS011;4983;42.112;24.738;2023-08-12T14:08:13;2.43;;;1.47;;
9888;SDS011;4983;42.112;24.738;2023-08-12T14:10:40;3.27;;;1.53;;
9888;SDS011;4983;42.112;24.738;2023-08-12T14:13:09;1.60;;;1.40;;
9888;SDS011;4983;42.112;24.738;2023-08-12T14:15:36;7.40;;;1.47;;
9888;SDS011;4983;42.112;24.738;2023-08-12T14:18:03;2.60;;;1.60;;
9888;SDS011;4983;42.112;24.738;2023-08-12T14:20:31;3.37;;;1.50;;
9888;SDS011;4983;42.112;24.738;2023-08-12T14:22:58;1.47;;;1.20;;
9888;SDS011;4983;42.112;24.738;2023-08-12T14:25:25;1.63;;;1.20;;
9888;SDS011;4983;42.112;24.738;2023-08-12T14:27:53;1.97;;;1.40;;
9888;SDS011;4983;42.112;24.738;2023-08-12T14:30:24;2.20;;;1.50;;
9888;SDS011;4983;42.112;24.738;2023-08-12T14:32:52;1.40;;;1.30;;
9888;SDS011;4983;42.112;24.738;2023-08-12T14:35:19;4.03;;;1.70;;
9888;SDS011;4983;42.112;24.738;2023-08-12T14:37:46;3.87;;;1.37;;
9888;SDS011;4983;42.112;24.738;2023-08-12T14:40:13;3.23;;;1.83;;
9888;SDS011;4983;42.112;24.738;2023-08-12T14:42:40;4.37;;;1.67;;
9888;SDS011;4983;42.112;24.738;2023-08-12T14:45:07;1.57;;;1.47;;
9888;SDS011;4983;42.112;24.738;2023-08-12T14:47:37;1.43;;;1.20;;
9888;SDS011;4983;42.112;24.738;2023-08-12T14:50:04;2.50;;;2.03;;
9888;SDS011;4983;42.112;24.738;2023-08-12T14:52:32;2.07;;;1.50;;
9888;SDS011;4983;42.112;24.738;2023-08-12T14:54:59;1.40;;;1.10;;
9888;SDS011;4983;42.112;24.738;2023-08-12T14:57:27;2.73;;;1.30;;
9888;SDS011;4983;42.112;24.738;2023-08-12T14:59:54;2.97;;;1.47;;
9888;SDS011;4983;42.112;24.738;2023-08-12T15:02:21;6.03;;;2.07;;
9888;SDS011;4983;42.112;24.738;2023-08-12T15:04:50;2.47;;;1.33;;